Time;durP1;ratioP1;P1;durP2;ratioP2;P2;SDS_P1;SDS_P2;PMS_P1;PMS_P2;Temp;Humidity;BMP_temperature;BMP_pressure;BME280_temperature;BME280_humidity;BME280_pressure;Samples;Min_cycle;Max_cycle;Signal;HPM_P1;HPM_P2
2022/11/11 00:00:32;;;;;;;0.40;0.40;;;;;;;11.98;100.00;100372.31;5067636;28;20049;-70
2022/11/11 00:02:58;;;;;;;0.45;0.45;;;;;;;11.98;100.00;100374.94;5066373;28;20024;-70
2022/11/11 00:05:24;;;;;;;0.40;0.40;;;;;;;11.98;100.00;100372.31;5067624;28;20040;-69
2022/11/11 00:07:59;;;;;;;0.40;0.40;;;;;;;12.00;100.00;100367.94;5067383;28;20135;-70
2022/11/11 00:10:29;;;;;;;18.10;3.15;;;;;;;11.98;100.00;100359.31;5067110;28;20033;-69
2022/11/11 00:12:59;;;;;;;0.73;0.73;;;;;;;12.01;100.00;100362.72;5067145;28;20032;-69
2022/11/11 00:15:24;;;;;;;2.15;2.05;;;;;;;11.96;100.00;100359.34;5067178;28;20068;-69
2022/11/11 00:26:06;;;;;;;0.40;0.40;;;;;;;11.96;100.00;100379.28;5067166;28;20385;-68
2022/11/11 00:28:32;;;;;;;6.22;1.40;;;;;;;11.94;100.00;100383.63;5066890;28;20021;-70
2022/11/11 00:31:15;;;;;;;0.55;0.55;;;;;;;11.98;100.00;100380.13;5067134;28;20028;-70
2022/11/11 00:33:40;;;;;;;0.40;0.40;;;;;;;11.93;100.00;100375.00;5048769;28;20046;-69
2022/11/11 00:36:07;;;;;;;0.40;0.40;;;;;;;11.96;100.00;100380.16;5066842;28;20025;-69
2022/11/11 00:38:44;;;;;;;0.40;0.40;;;;;;;11.94;100.00;100370.63;5066770;28;20029;-69
2022/11/11 00:41:21;;;;;;;0.45;0.45;;;;;;;11.95;100.00;100395.78;5065594;28;20021;-69
2022/11/11 00:43:47;;;;;;;26.15;3.60;;;;;;;11.92;100.00;100393.22;5065156;28;20024;-69
2022/11/11 00:52:01;;;;;;;0.50;0.50;;;;;;;11.93;100.00;100389.75;5004903;28;20201;-71
2022/11/11 00:54:27;;;;;;;18.92;4.53;;;;;;;11.97;100.00;100397.47;5004177;28;20058;-69
2022/11/11 00:56:52;;;;;;;0.40;0.40;;;;;;;11.98;100.00;100378.38;5004700;28;20047;-71
2022/11/11 00:59:17;;;;;;;0.40;0.40;;;;;;;11.94;100.00;100375.84;5004962;28;20045;-69
2022/11/11 01:01:43;;;;;;;0.40;0.40;;;;;;;11.97;100.00;100366.25;5004908;28;20577;-69
2022/11/11 01:04:08;;;;;;;0.40;0.40;;;;;;;11.92;100.00;100356.81;5004678;28;20030;-68
2022/11/11 01:06:33;;;;;;;0.40;0.40;;;;;;;11.96;100.00;100384.50;5004413;28;20041;-69
2022/11/11 01:09:04;;;;;;;0.40;0.40;;;;;;;11.97;100.00;100396.59;5004763;28;20344;-69
2022/11/11 01:11:30;;;;;;;0.40;0.40;;;;;;;12.00;100.00;100404.38;4987885;28;20023;-68
2022/11/11 01:13:55;;;;;;;0.50;0.50;;;;;;;12.06;100.00;100406.88;5004440;28;20129;-70
2022/11/11 01:16:23;;;;;;;0.40;0.40;;;;;;;12.08;100.00;100412.97;5004445;28;20073;-70
2022/11/11 01:18:50;;;;;;;0.40;0.40;;;;;;;12.05;100.00;100410.38;4988100;28;20054;-73
2022/11/11 01:21:21;;;;;;;0.50;0.50;;;;;;;12.05;100.00;100409.50;5004341;28;20085;-71
2022/11/11 01:23:48;;;;;;;0.75;0.70;;;;;;;12.06;100.00;100404.28;5058339;28;20059;-72
2022/11/11 01:26:21;;;;;;;0.43;0.43;;;;;;;12.06;100.00;100416.44;5064360;28;20025;-72
2022/11/11 01:28:52;;;;;;;2.58;1.50;;;;;;;12.07;100.00;100419.03;5065916;28;20032;-69
2022/11/11 01:31:20;;;;;;;0.40;0.40;;;;;;;12.07;100.00;100416.41;5065877;28;20404;-73
2022/11/11 01:33:46;;;;;;;0.95;0.90;;;;;;;12.04;100.00;100408.66;5064530;28;20403;-72
2022/11/11 01:36:17;;;;;;;0.40;0.40;;;;;;;12.08;100.00;100405.16;5064232;28;20048;-73
2022/11/11 01:38:43;;;;;;;0.77;0.77;;;;;;;12.12;100.00;100405.97;5047707;28;20041;-72
2022/11/11 01:41:32;;;;;;;0.85;0.85;;;;;;;12.11;100.00;100407.72;5065396;28;20021;-74
2022/11/11 01:44:18;;;;;;;3.03;1.90;;;;;;;12.13;100.00;100408.56;5063951;28;20032;-73
2022/11/11 01:46:57;;;;;;;0.40;0.40;;;;;;;12.12;99.57;100400.78;5063984;28;20055;-72
2022/11/11 01:49:35;;;;;;;0.40;0.40;;;;;;;12.13;99.60;100382.53;5065552;28;20033;-72
2022/11/11 01:52:12;;;;;;;0.40;0.40;;;;;;;12.14;99.54;100381.63;5065361;28;20032;-72
2022/11/11 01:54:41;;;;;;;0.40;0.40;;;;;;;12.09;99.55;100375.63;5065196;28;20087;-74
2022/11/11 01:57:31;;;;;;;2.10;1.27;;;;;;;12.12;99.40;100380.78;5065209;28;20105;-73
2022/11/11 02:00:05;;;;;;;0.40;0.40;;;;;;;12.08;99.46;100389.53;5064111;28;20017;-72
2022/11/11 02:02:45;;;;;;;0.40;0.40;;;;;;;12.10;99.23;100399.94;5063653;28;20084;-73
2022/11/11 02:08:00;;;;;;;1.83;1.75;;;;;;;12.11;99.34;100388.63;5064759;28;20090;-73
2022/11/11 02:10:27;;;;;;;0.40;0.40;;;;;;;12.09;99.33;100380.84;5065254;28;20058;-73
2022/11/11 02:15:37;;;;;;;0.40;0.40;;;;;;;12.09;99.36;100391.25;5065048;28;20036;-72
2022/11/11 02:18:03;;;;;;;0.40;0.40;;;;;;;12.12;99.07;100391.19;5063789;28;20025;-73
2022/11/11 02:20:34;;;;;;;50.03;3.65;;;;;;;12.16;99.19;100385.97;5047237;28;20021;-72
2022/11/11 02:23:24;;;;;;;0.40;0.40;;;;;;;12.17;99.33;100379.88;5064868;28;20104;-73
2022/11/11 02:25:52;;;;;;;0.40;0.40;;;;;;;12.15;99.26;100377.31;5065157;28;20024;-72
2022/11/11 02:28:20;;;;;;;0.40;0.40;;;;;;;12.16;99.10;100371.19;5063062;28;20021;-70
2022/11/11 02:30:46;;;;;;;0.40;0.40;;;;;;;12.16;98.72;100368.59;5064480;28;20036;-72
2022/11/11 02:33:11;;;;;;;0.40;0.40;;;;;;;12.19;98.63;100381.56;5064004;28;20021;-73
2022/11/11 02:35:42;;;;;;;0.40;0.40;;;;;;;12.19;98.53;100375.53;5063493;28;20036;-73
2022/11/11 02:38:10;;;;;;;0.40;0.40;;;;;;;12.22;98.38;100372.88;5063715;28;20025;-71
2022/11/11 02:43:30;;;;;;;1.30;1.25;;;;;;;12.17;98.35;100379.88;5063927;28;20472;-72
2022/11/11 02:45:55;;;;;;;3.85;3.08;;;;;;;12.17;98.38;100380.75;5064699;28;20025;-72
2022/11/11 02:48:22;;;;;;;0.40;0.40;;;;;;;12.18;98.55;100381.59;5064882;28;20036;-73
2022/11/11 02:50:47;;;;;;;0.70;0.70;;;;;;;12.14;98.46;100360.81;5064418;28;20036;-73
2022/11/11 02:53:12;;;;;;;0.40;0.40;;;;;;;12.22;97.98;100370.25;5064784;28;20465;-73
2022/11/11 02:55:37;;;;;;;0.70;0.70;;;;;;;12.19;98.04;100370.31;5064396;28;20052;-73
2022/11/11 02:58:03;;;;;;;1.20;1.20;;;;;;;12.18;98.13;100372.03;5064650;28;20097;-73
2022/11/11 03:00:29;;;;;;;0.40;0.40;;;;;;;12.20;98.03;100359.88;5064866;28;20029;-73
2022/11/11 03:02:54;;;;;;;0.40;0.40;;;;;;;12.24;97.93;100376.28;5063090;28;20064;-73
2022/11/11 03:05:20;;;;;;;0.40;0.40;;;;;;;12.21;97.80;100376.34;5064520;28;20036;-73
2022/11/11 03:07:45;;;;;;;0.40;0.40;;;;;;;12.24;97.71;100387.56;5064814;28;20040;-73
2022/11/11 03:10:10;;;;;;;0.40;0.40;;;;;;;12.26;97.62;100377.13;5064631;28;20086;-73
2022/11/11 03:12:36;;;;;;;0.82;0.82;;;;;;;12.26;97.74;100379.72;5062748;28;20020;-72
2022/11/11 03:15:02;;;;;;;0.95;0.95;;;;;;;12.24;97.53;100378.88;5063042;28;20064;-73
2022/11/11 03:17:40;;;;;;;0.47;0.47;;;;;;;12.22;97.22;100372.88;5063455;28;20047;-73
2022/11/11 03:23:02;;;;;;;0.70;0.70;;;;;;;12.23;97.00;100370.25;5068508;28;20077;-73
2022/11/11 03:25:37;;;;;;;0.40;0.40;;;;;;;12.21;97.18;100363.31;5066563;28;20028;-73
2022/11/11 03:28:03;;;;;;;0.40;0.40;;;;;;;12.25;96.92;100360.63;5066950;28;20071;-73
2022/11/11 03:30:29;;;;;;;2.85;2.40;;;;;;;12.16;96.96;100333.94;5066771;28;20013;-74
2022/11/11 03:32:54;;;;;;;0.40;0.40;;;;;;;12.27;97.00;100345.00;5067686;28;20040;-73
2022/11/11 03:35:19;;;;;;;0.40;0.40;;;;;;;12.31;96.84;100340.59;5067948;28;20404;-73
2022/11/11 03:40:29;;;;;;;0.40;0.40;;;;;;;12.35;96.05;100361.34;5067997;28;20031;-73
2022/11/11 03:42:54;;;;;;;0.32;0.32;;;;;;;12.36;96.28;100350.03;5066397;28;20025;-74
2022/11/11 03:45:20;;;;;;;0.40;0.40;;;;;;;12.39;96.09;100364.78;5067594;28;20492;-72
2022/11/11 03:47:45;;;;;;;0.40;0.40;;;;;;;12.46;95.55;100360.34;5067834;28;20021;-73
2022/11/11 03:50:11;;;;;;;0.85;0.85;;;;;;;12.43;95.38;100355.19;5066486;28;20039;-73
2022/11/11 03:52:41;;;;;;;0.65;0.65;;;;;;;12.47;95.23;100349.03;5067659;28;20054;-72
2022/11/11 03:55:06;;;;;;;0.98;0.98;;;;;;;12.51;95.10;100340.25;5066106;28;20504;-72
2022/11/11 03:57:32;;;;;;;0.50;0.50;;;;;;;12.55;94.56;100333.25;5067692;28;20029;-74
2022/11/11 03:59:57;;;;;;;0.93;0.88;;;;;;;12.54;94.48;100344.56;5066279;28;20444;-73
2022/11/11 04:10:35;;;;;;;0.40;0.40;;;;;;;12.54;93.85;100358.44;5067455;28;20550;-73
2022/11/11 04:23:57;;;;;;;1.55;1.23;;;;;;;12.48;93.63;100388.06;5067417;28;20024;-73
2022/11/11 04:26:22;;;;;;;0.40;0.40;;;;;;;12.47;93.62;100381.13;5067027;28;20021;-73
2022/11/11 04:31:31;;;;;;;0.38;0.38;;;;;;;12.49;93.77;100378.50;5066923;28;20080;-73
2022/11/11 04:33:57;;;;;;;0.40;0.40;;;;;;;12.49;93.67;100381.09;5066924;28;20460;-73
2022/11/11 04:36:22;;;;;;;0.40;0.40;;;;;;;12.54;93.57;100392.28;5065499;28;20067;-73
2022/11/11 04:41:31;;;;;;;0.38;0.38;;;;;;;12.51;93.54;100387.13;5066865;28;20027;-73
2022/11/11 04:46:41;;;;;;;1.05;0.98;;;;;;;12.52;93.60;100383.66;5067164;28;20044;-74
2022/11/11 04:49:06;;;;;;;0.98;0.98;;;;;;;12.55;93.50;100390.56;5065137;28;20017;-75
2022/11/11 04:54:15;;;;;;;0.40;0.40;;;;;;;12.58;93.39;100386.16;5067080;28;20136;-73
2022/11/11 04:56:48;;;;;;;0.40;0.40;;;;;;;12.62;93.25;100390.41;5066708;28;20029;-74
2022/11/11 04:59:18;;;;;;;0.40;0.40;;;;;;;12.67;93.50;100386.88;5064856;28;20032;-74
2022/11/11 05:04:29;;;;;;;0.40;0.40;;;;;;;12.66;93.11;100406.84;5066485;28;20035;-74
2022/11/11 05:09:39;;;;;;;0.93;0.93;;;;;;;12.68;93.17;100402.50;5066414;28;20028;-72
2022/11/11 05:12:05;;;;;;;0.70;0.70;;;;;;;12.70;93.09;100403.31;5065959;28;20040;-72
2022/11/11 05:21:19;;;;;;;0.35;0.35;;;;;;;12.72;93.11;100398.94;5066394;28;20099;-73
2022/11/11 05:22:53;;;;;;;0.40;0.40;;;;;;;12.72;92.94;100391.13;5066195;28;20097;-72
2022/11/11 05:25:24;;;;;;;0.50;0.50;;;;;;;12.75;93.17;100385.84;5066050;28;20029;-73
2022/11/11 05:27:52;;;;;;;0.35;0.35;;;;;;;12.72;93.35;100372.03;5065993;28;20029;-73
2022/11/11 05:30:18;;;;;;;13.63;5.05;;;;;;;12.71;92.99;100383.34;5064618;28;20124;-74
2022/11/11 05:32:44;;;;;;;0.32;0.32;;;;;;;12.72;93.16;100400.66;5064528;28;20062;-72
2022/11/11 05:35:13;;;;;;;0.50;0.50;;;;;;;12.72;93.26;100391.13;5065641;28;20025;-74
2022/11/11 05:37:39;;;;;;;0.40;0.40;;;;;;;12.74;nan;100407.59;5065577;28;20032;-72
2022/11/11 05:40:06;;;;;;;1.20;1.20;;;;;;;12.73;93.42;100397.19;5064249;28;20021;-72
2022/11/11 05:42:31;;;;;;;0.40;0.40;;;;;;;12.74;93.43;100398.91;5064294;28;20025;-73
2022/11/11 05:44:57;;;;;;;0.40;0.40;;;;;;;12.71;93.31;100405.03;5065542;28;20032;-72
2022/11/11 05:47:22;;;;;;;0.40;0.40;;;;;;;12.72;93.47;100401.53;5065513;28;20460;-72
2022/11/11 05:49:48;;;;;;;0.40;0.40;;;;;;;12.68;93.39;100410.31;5065663;28;20028;-75
2022/11/11 05:52:15;;;;;;;1.75;1.65;;;;;;;12.74;93.29;100415.41;5065363;28;20024;-70
2022/11/11 05:54:40;;;;;;;0.40;0.40;;;;;;;12.71;93.58;100418.06;5065336;28;20052;-70
2022/11/11 05:57:06;;;;;;;0.40;0.40;;;;;;;12.72;93.16;100419.78;5065305;28;20029;-73
2022/11/11 05:59:31;;;;;;;0.70;0.70;;;;;;;12.73;93.32;100418.88;5065337;28;20449;-72
2022/11/11 06:01:57;;;;;;;0.40;0.40;;;;;;;12.68;93.40;100409.44;5063864;28;20392;-73
2022/11/11 06:04:22;;;;;;;19.38;2.38;;;;;;;12.69;93.72;100417.22;5063844;28;20581;-70
2022/11/11 06:06:47;;;;;;;0.70;0.70;;;;;;;12.74;93.62;100410.19;5065182;28;20029;-70
2022/11/11 06:09:13;;;;;;;0.85;0.85;;;;;;;12.71;93.97;100425.00;5065171;28;20028;-72
2022/11/11 06:11:38;;;;;;;0.40;0.40;;;;;;;12.71;93.75;100418.06;5065206;28;20048;-71
2022/11/11 06:14:04;;;;;;;0.40;0.40;;;;;;;12.68;93.39;100409.44;5065112;28;20051;-69
2022/11/11 06:16:30;;;;;;;0.40;0.40;;;;;;;12.71;93.68;100419.81;5063473;28;20055;-69
2022/11/11 06:18:55;;;;;;;0.40;0.40;;;;;;;12.70;93.92;100418.09;5063968;28;20021;-71
2022/11/11 06:21:20;;;;;;;0.30;0.30;;;;;;;12.67;93.87;100418.16;5065042;28;20021;-69
2022/11/11 06:23:46;;;;;;;3.17;2.92;;;;;;;12.70;93.86;100412.88;5065394;28;20083;-69
2022/11/11 06:26:12;;;;;;;0.40;0.40;;;;;;;12.69;94.08;100400.72;5064997;28;20028;-69
2022/11/11 06:28:38;;;;;;;0.38;0.38;;;;;;;12.60;93.82;100394.78;5064861;28;20041;-69
2022/11/11 06:31:06;;;;;;;0.40;0.40;;;;;;;12.67;93.96;100425.97;5065163;28;20025;-69
2022/11/11 06:33:31;;;;;;;0.30;0.30;;;;;;;12.66;94.11;100421.63;5063543;28;20053;-69
2022/11/11 06:35:57;;;;;;;1.20;1.20;;;;;;;12.66;94.35;100421.63;5064766;28;20083;-69
2022/11/11 06:38:22;;;;;;;0.40;0.40;;;;;;;12.69;93.93;100426.78;5065089;28;20080;-68
2022/11/11 06:40:47;;;;;;;0.40;0.40;;;;;;;12.68;94.05;100425.94;5064901;28;20017;-69
2022/11/11 06:43:13;;;;;;;0.40;0.40;;;;;;;12.67;94.06;100428.56;5063503;28;20450;-70
2022/11/11 06:45:38;;;;;;;0.38;0.38;;;;;;;12.72;93.68;100429.31;5064608;28;20028;-71
2022/11/11 06:48:05;;;;;;;0.40;0.40;;;;;;;12.69;93.95;100426.78;5063048;28;20472;-69
2022/11/11 06:50:34;;;;;;;0.45;0.45;;;;;;;12.67;93.87;100439.81;5063540;28;20137;-69
2022/11/11 06:53:05;;;;;;;0.40;0.40;;;;;;;12.66;93.71;100437.25;5066304;28;20084;-69
2022/11/11 06:55:32;;;;;;;3.08;2.05;;;;;;;12.72;93.54;100455.38;5067566;28;20045;-69
2022/11/11 06:58:10;;;;;;;0.50;0.50;;;;;;;12.64;93.39;100440.75;5067054;28;20112;-71
2022/11/11 07:00:37;;;;;;;0.75;0.75;;;;;;;12.61;93.48;100446.00;5067540;28;20021;-70
2022/11/11 07:03:04;;;;;;;0.50;0.50;;;;;;;12.60;93.53;100459.06;5067311;28;20021;-70
2022/11/11 07:05:29;;;;;;;0.30;0.30;;;;;;;12.59;93.28;100452.97;5065852;28;20084;-69
2022/11/11 07:07:55;;;;;;;0.40;0.40;;;;;;;12.59;93.25;100452.97;5067696;28;20028;-70
2022/11/11 07:10:21;;;;;;;0.40;0.40;;;;;;;12.64;93.46;100456.38;5068680;28;20040;-69
2022/11/11 07:12:46;;;;;;;0.40;0.40;;;;;;;12.66;93.02;100463.28;5068457;28;20052;-69
2022/11/11 07:15:12;;;;;;;0.40;0.40;;;;;;;12.72;93.08;100484.91;5068515;28;20025;-72
2022/11/11 07:17:37;;;;;;;0.40;0.40;;;;;;;12.72;92.92;100465.78;5068657;28;20036;-71
2022/11/11 07:20:03;;;;;;;0.95;0.95;;;;;;;12.75;92.57;100476.16;5068523;28;20139;-70
2022/11/11 07:22:29;;;;;;;0.30;0.30;;;;;;;12.72;92.22;100474.47;5068491;28;20017;-71
2022/11/11 07:24:54;;;;;;;0.40;0.40;;;;;;;12.73;92.52;100481.41;5068493;28;20108;-72
2022/11/11 07:27:19;;;;;;;0.40;0.40;;;;;;;12.77;91.87;100482.22;5065394;28;20360;-71
2022/11/11 07:29:45;;;;;;;0.40;0.40;;;;;;;12.76;91.73;100472.69;5065693;28;20036;-71
2022/11/11 07:32:10;;;;;;;0.40;0.40;;;;;;;12.73;91.46;100464.94;5068147;28;20067;-71
2022/11/11 07:34:35;;;;;;;0.40;0.40;;;;;;;12.81;91.52;100468.25;5068141;28;20396;-71
2022/11/11 07:37:01;;;;;;;0.40;0.40;;;;;;;12.84;91.35;100462.13;5067966;28;20025;-71
2022/11/11 07:39:26;;;;;;;1.10;1.05;;;;;;;12.85;91.59;100469.06;5068201;28;20377;-71
2022/11/11 07:41:51;;;;;;;0.35;0.35;;;;;;;12.84;91.14;100468.19;5066576;28;20013;-71
2022/11/11 07:44:17;;;;;;;19.73;1.23;;;;;;;12.81;91.39;100473.44;5067854;28;20036;-72
2022/11/11 07:46:42;;;;;;;0.50;0.50;;;;;;;12.81;91.27;100478.66;5066653;28;20021;-71
2022/11/11 07:49:07;;;;;;;0.40;0.40;;;;;;;12.87;91.37;100481.19;5066490;28;20088;-71
2022/11/11 07:51:33;;;;;;;4.57;3.30;;;;;;;12.94;91.34;100496.72;5066564;28;20052;-70
2022/11/11 07:53:58;;;;;;;0.40;0.40;;;;;;;12.92;90.96;100480.25;5067581;28;20029;-71
2022/11/11 07:56:23;;;;;;;0.90;0.90;;;;;;;12.95;90.45;100504.50;5067644;28;20022;-71
2022/11/11 07:58:49;;;;;;;0.60;0.60;;;;;;;12.98;90.25;100503.59;5067732;28;20090;-72
2022/11/11 08:01:14;;;;;;;0.60;0.60;;;;;;;12.97;90.41;100491.44;5066248;28;20108;-71
2022/11/11 08:03:48;;;;;;;0.50;0.50;;;;;;;12.98;90.04;100499.25;5065631;28;20388;-70
2022/11/11 08:06:22;;;;;;;0.65;0.65;;;;;;;12.96;89.66;100500.13;5066625;28;20021;-71
2022/11/11 08:08:48;;;;;;;3.55;3.25;;;;;;;13.02;89.96;100511.31;5066265;28;20036;-70
2022/11/11 08:11:15;;;;;;;0.40;0.40;;;;;;;13.03;89.58;100514.81;5066140;28;20029;-70
2022/11/11 08:13:42;;;;;;;0.40;0.40;;;;;;;13.08;89.84;100501.69;5067003;28;20028;-71
2022/11/11 08:16:09;;;;;;;0.38;0.38;;;;;;;13.09;89.78;100527.72;5067451;28;20052;-71
2022/11/11 08:18:35;;;;;;;0.40;0.40;;;;;;;13.13;89.64;100537.19;5067174;28;20029;-70
2022/11/11 08:21:01;;;;;;;0.70;0.70;;;;;;;13.11;89.35;100531.19;5066007;28;20019;-71
2022/11/11 08:23:33;;;;;;;0.40;0.40;;;;;;;13.13;89.26;100529.38;5067340;28;20081;-70
2022/11/11 08:26:00;;;;;;;0.93;0.93;;;;;;;13.15;89.22;100537.19;5067046;28;20412;-70
2022/11/11 08:28:27;;;;;;;0.30;0.30;;;;;;;13.14;89.10;100543.28;5066835;28;20453;-69
2022/11/11 08:30:53;;;;;;;0.40;0.40;;;;;;;13.16;89.10;100532.84;5066902;28;20025;-70
2022/11/11 08:33:19;;;;;;;0.40;0.40;;;;;;;13.11;89.14;100539.00;5067065;28;20025;-70
2022/11/11 08:35:44;;;;;;;0.40;0.40;;;;;;;13.14;88.90;100551.97;5065278;28;20020;-70
2022/11/11 08:38:09;;;;;;;2.25;2.15;;;;;;;13.11;89.04;100557.25;5066970;28;20048;-70
2022/11/11 08:40:35;;;;;;;2.08;1.92;;;;;;;13.10;89.00;100554.66;5065765;28;20025;-71
2022/11/11 08:43:01;;;;;;;0.40;0.40;;;;;;;13.10;89.28;100546.84;5066718;28;20060;-70
2022/11/11 08:45:26;;;;;;;2.00;1.90;;;;;;;13.16;89.38;100551.94;5065449;28;20013;-70
2022/11/11 08:47:52;;;;;;;0.50;0.50;;;;;;;13.14;88.74;100556.31;5065510;28;20032;-70
2022/11/11 08:50:17;;;;;;;0.40;0.40;;;;;;;13.18;89.00;100546.72;5066656;28;20089;-70
2022/11/11 08:52:47;;;;;;;0.80;0.80;;;;;;;13.09;88.77;100537.28;5065038;28;20028;-70
2022/11/11 08:55:13;;;;;;;0.40;0.40;;;;;;;13.20;89.05;100570.97;5066295;28;20049;-70
2022/11/11 08:57:38;;;;;;;0.40;0.40;;;;;;;13.18;88.65;100557.97;5065029;28;20116;-71
2022/11/11 09:00:05;;;;;;;0.40;0.40;;;;;;;13.19;88.63;100553.63;5066345;28;20031;-71
2022/11/11 09:02:30;;;;;;;0.52;0.52;;;;;;;13.19;88.81;100551.03;5065020;28;20451;-71
2022/11/11 09:04:56;;;;;;;8.50;1.65;;;;;;;13.21;88.73;100555.31;5065920;28;20025;-70
2022/11/11 09:07:21;;;;;;;0.40;0.40;;;;;;;13.18;88.64;100547.53;5064291;28;20097;-70
2022/11/11 09:09:46;;;;;;;0.55;0.55;;;;;;;13.20;88.65;100564.03;5066105;28;20092;-71
2022/11/11 09:12:12;;;;;;;11.07;2.80;;;;;;;13.17;88.61;100560.59;5064802;28;20025;-71
2022/11/11 09:14:37;;;;;;;0.40;0.40;;;;;;;13.21;88.41;100570.13;5065395;28;20021;-75
2022/11/11 09:17:03;;;;;;;0.60;0.60;;;;;;;13.22;88.74;100571.81;5065672;28;20485;-74
2022/11/11 09:19:28;;;;;;;0.40;0.40;;;;;;;13.21;89.01;100570.13;5066307;28;20031;-76
2022/11/11 09:21:53;;;;;;;0.30;0.30;;;;;;;13.24;88.81;100572.66;5064990;28;20027;-74
2022/11/11 09:24:19;;;;;;;0.40;0.40;;;;;;;13.23;88.67;100590.03;5064828;28;20511;-75
2022/11/11 09:26:47;;;;;;;0.60;0.60;;;;;;;13.21;88.66;100590.97;5066202;28;20033;-74
2022/11/11 09:29:12;;;;;;;0.45;0.45;;;;;;;13.16;88.91;100583.22;5066072;28;20036;-74
2022/11/11 09:31:38;;;;;;;0.40;0.40;;;;;;;13.17;88.81;100587.53;5065905;28;20025;-74
2022/11/11 09:34:05;;;;;;;3.92;2.95;;;;;;;13.21;89.15;100596.19;5066093;28;20025;-74
2022/11/11 09:36:31;;;;;;;0.50;0.50;;;;;;;13.25;88.96;100603.94;5064401;28;20032;-74
2022/11/11 09:38:57;;;;;;;1.70;1.65;;;;;;;13.25;88.84;100603.06;5066168;28;20451;-75
2022/11/11 09:42:07;;;;;;;0.40;0.40;;;;;;;13.25;88.86;100614.34;5065982;28;20021;-74
2022/11/11 09:44:59;;;;;;;0.40;0.40;;;;;;;13.21;88.79;100609.22;5059449;28;20041;-74
2022/11/11 09:47:52;;;;;;;0.70;0.70;;;;;;;13.21;88.93;100615.28;5065829;28;20025;-76
2022/11/11 09:50:26;;;;;;;0.30;0.30;;;;;;;13.22;89.13;100619.63;5065775;28;20052;-74
2022/11/11 09:53:20;;;;;;;0.38;0.38;;;;;;;13.22;88.90;100613.53;5065823;28;20020;-74
2022/11/11 09:55:51;;;;;;;0.47;0.47;;;;;;;13.26;89.09;100618.69;5065331;28;20505;-74
2022/11/11 09:58:43;;;;;;;0.93;0.93;;;;;;;13.29;88.69;100624.72;5065351;28;20139;-73
2022/11/11 10:01:17;;;;;;;0.40;0.40;;;;;;;13.26;89.00;100618.69;5058464;28;20445;-75
2022/11/11 10:03:49;;;;;;;0.45;0.45;;;;;;;13.33;88.51;100635.09;5065497;28;20060;-75
2022/11/11 10:06:22;;;;;;;0.40;0.40;;;;;;;13.37;88.94;100633.31;5065490;28;20043;-75
2022/11/11 10:09:12;;;;;;;0.70;0.70;;;;;;;13.37;88.59;100628.94;5065516;28;20028;-75
2022/11/11 10:12:04;;;;;;;0.40;0.40;;;;;;;13.39;88.47;100634.13;5065403;28;20117;-74
2022/11/11 10:14:36;;;;;;;0.40;0.40;;;;;;;13.35;88.46;100640.28;5065369;28;20025;-75
2022/11/11 10:17:07;;;;;;;0.40;0.40;;;;;;;13.33;88.19;100660.28;5065285;28;20024;-75
2022/11/11 10:19:52;;;;;;;0.50;0.50;;;;;;;13.29;88.10;100663.84;5065751;28;20025;-74
2022/11/11 10:22:39;;;;;;;0.40;0.40;;;;;;;13.26;88.20;100668.22;5065285;28;20029;-74
2022/11/11 10:25:11;;;;;;;0.40;0.40;;;;;;;13.29;87.84;100675.13;5063656;28;20031;-73
2022/11/11 10:27:50;;;;;;;0.50;0.50;;;;;;;13.21;88.27;100670.03;5064282;28;20056;-73
2022/11/11 10:30:16;;;;;;;0.40;0.40;;;;;;;13.23;88.13;100665.66;5065249;28;20028;-72
2022/11/11 10:32:43;;;;;;;0.40;0.40;;;;;;;13.23;88.58;100664.78;5047119;28;20028;-73
2022/11/11 10:35:19;;;;;;;3.97;3.72;;;;;;;13.30;88.54;100663.81;5065278;28;20028;-73
2022/11/11 10:37:44;;;;;;;6.57;6.00;;;;;;;13.28;88.42;100668.19;5065255;28;20096;-73
2022/11/11 10:40:19;;;;;;;1.90;1.85;;;;;;;13.34;88.50;100681.13;5063578;28;20021;-74
2022/11/11 10:42:44;;;;;;;0.40;0.40;;;;;;;13.29;88.37;100677.72;5065032;28;20036;-73
2022/11/11 10:45:41;;;;;;;0.40;0.40;;;;;;;13.26;88.31;100682.97;5065134;28;20025;-71
2022/11/11 10:48:14;;;;;;;0.40;0.40;;;;;;;13.29;88.41;100682.09;5065013;28;20024;-75
2022/11/11 10:50:49;;;;;;;0.40;0.40;;;;;;;13.29;88.40;100688.16;5065600;28;20028;-74
2022/11/11 10:53:33;;;;;;;0.88;0.88;;;;;;;13.31;87.98;100699.44;5063584;28;20416;-73
2022/11/11 10:56:34;;;;;;;1.52;1.48;;;;;;;13.32;88.20;100698.53;5063638;28;20455;-74
2022/11/11 10:59:24;;;;;;;1.25;1.25;;;;;;;13.30;87.97;100699.44;5049789;28;20029;-73
2022/11/11 11:01:59;;;;;;;0.85;0.85;;;;;;;13.35;87.85;100705.47;5065174;28;20048;-75
2022/11/11 11:04:44;;;;;;;0.50;0.50;;;;;;;13.35;87.63;100697.66;5064971;28;20032;-72
2022/11/11 11:07:14;;;;;;;0.40;0.40;;;;;;;13.31;87.72;100678.56;5063431;28;20025;-75
2022/11/11 11:10:04;;;;;;;0.40;0.40;;;;;;;13.38;88.03;100688.03;5064857;28;20036;-74
2022/11/11 11:12:53;;;;;;;12.95;1.27;;;;;;;13.43;87.61;100679.25;5064739;28;20049;-72
2022/11/11 11:15:24;;;;;;;0.40;0.40;;;;;;;13.42;87.57;100690.59;5064616;28;20025;-72
2022/11/11 11:18:00;;;;;;;0.40;0.40;;;;;;;13.44;87.51;100696.63;5064875;28;20550;-73
2022/11/11 11:20:25;;;;;;;0.40;0.40;;;;;;;13.46;87.23;100692.25;5064696;28;20037;-74
2022/11/11 11:22:54;;;;;;;0.40;0.40;;;;;;;13.45;87.09;100693.16;5065138;28;20017;-75
2022/11/11 11:25:21;;;;;;;0.40;0.40;;;;;;;13.44;87.02;100701.84;5063252;28;20025;-74
2022/11/11 11:27:49;;;;;;;0.40;0.40;;;;;;;13.45;87.14;100695.75;5061420;28;20021;-73
2022/11/11 11:30:20;;;;;;;0.40;0.40;;;;;;;13.43;86.99;100694.91;5063120;28;20330;-73
2022/11/11 11:33:00;;;;;;;0.40;0.40;;;;;;;13.43;87.13;100702.75;5063993;28;20075;-71
2022/11/11 11:35:41;;;;;;;0.40;0.40;;;;;;;13.38;87.00;100690.66;5064332;28;20025;-73
2022/11/11 11:38:08;;;;;;;0.40;0.40;;;;;;;13.42;87.37;100694.03;5064482;28;20036;-73
2022/11/11 11:41:06;;;;;;;0.40;0.40;;;;;;;13.45;87.15;100703.59;5066513;28;20464;-74
2022/11/11 11:43:37;;;;;;;0.80;0.80;;;;;;;13.44;87.42;100707.06;5034421;28;20501;-74
2022/11/11 11:46:26;;;;;;;0.50;0.50;;;;;;;13.42;87.17;100695.81;5067833;28;20092;-75
2022/11/11 11:49:07;;;;;;;0.47;0.47;;;;;;;13.42;87.13;100693.19;5068089;28;20303;-72
2022/11/11 11:51:37;;;;;;;0.40;0.40;;;;;;;13.45;87.10;100693.16;5067834;28;20025;-74
2022/11/11 11:54:14;;;;;;;0.30;0.30;;;;;;;13.49;87.24;100702.63;5066373;28;20025;-74
2022/11/11 11:56:44;;;;;;;0.40;0.40;;;;;;;13.47;87.07;100691.34;5067679;28;20028;-74
2022/11/11 11:59:30;;;;;;;0.80;0.80;;;;;;;13.55;86.95;100702.56;5067494;28;20025;-74
2022/11/11 12:02:01;;;;;;;0.68;0.68;;;;;;;13.54;87.02;100706.06;5067873;28;20017;-74
2022/11/11 12:04:53;;;;;;;0.60;0.60;;;;;;;13.56;87.00;100706.88;5067577;28;20027;-73
2022/11/11 12:07:46;;;;;;;0.40;0.40;;;;;;;13.55;86.78;100705.19;5043266;28;20082;-74
2022/11/11 12:10:43;;;;;;;0.40;0.40;;;;;;;13.55;86.43;100705.19;5066631;28;20106;-75
2022/11/11 12:13:14;;;;;;;1.25;1.25;;;;;;;13.56;86.61;100712.09;5067552;28;20067;-74
2022/11/11 12:16:09;;;;;;;0.80;0.80;;;;;;;13.56;86.31;100706.88;5067505;28;20021;-74
2022/11/11 12:18:38;;;;;;;5.05;1.10;;;;;;;13.51;86.40;100693.09;5066931;28;20041;-72
2022/11/11 12:21:11;;;;;;;0.40;0.40;;;;;;;13.47;86.36;100707.00;5067404;28;20017;-76
2022/11/11 12:24:04;;;;;;;3.30;3.10;;;;;;;13.61;86.49;100704.25;5067296;28;20025;-73
2022/11/11 12:26:54;;;;;;;0.30;0.30;;;;;;;13.56;86.50;100704.28;5065863;28;20025;-73
2022/11/11 12:29:41;;;;;;;0.40;0.40;;;;;;;13.54;86.09;100715.63;5065682;28;20025;-71
2022/11/11 12:32:35;;;;;;;0.40;0.40;;;;;;;13.44;86.48;100697.50;5066017;28;20032;-74
2022/11/11 12:35:15;;;;;;;0.40;0.40;;;;;;;13.50;86.30;100697.44;5067315;28;20032;-74
2022/11/11 12:37:56;;;;;;;0.40;0.40;;;;;;;13.48;86.68;100720.03;5065913;28;20029;-74
2022/11/11 12:40:37;;;;;;;0.32;0.32;;;;;;;13.51;86.36;100727.00;5065342;28;20564;-76
2022/11/11 12:43:14;;;;;;;0.40;0.40;;;;;;;13.50;86.30;100739.16;5066729;28;20158;-76
2022/11/11 12:46:18;;;;;;;0.73;0.73;;;;;;;13.53;86.18;100722.59;5065439;28;20025;-73
2022/11/11 12:49:12;;;;;;;0.30;0.30;;;;;;;13.55;86.38;100741.69;5066544;28;20021;-73